sensor_id;sensor_type;location;lat;lon;timestamp;P1;durP1;ratioP1;P2;durP2;ratioP2
27983;SDS011;15317;50.360;8.726;2023-04-24T00:03:23;4.43;;;2.33;;
27983;SDS011;15317;50.360;8.726;2023-04-24T00:08:26;2.20;;;2.00;;
27983;SDS011;15317;50.360;8.726;2023-04-24T00:13:30;3.70;;;2.50;;
27983;SDS011;15317;50.360;8.726;2023-04-24T00:18:34;4.17;;;2.30;;
27983;SDS011;15317;50.360;8.726;2023-04-24T00:23:38;2.67;;;2.47;;
27983;SDS011;15317;50.360;8.726;2023-04-24T00:28:41;2.53;;;2.33;;
27983;SDS011;15317;50.360;8.726;2023-04-24T00:33:46;2.63;;;2.30;;
27983;SDS011;15317;50.360;8.726;2023-04-24T00:38:49;2.60;;;2.40;;
27983;SDS011;15317;50.360;8.726;2023-04-24T00:43:52;3.47;;;2.23;;
27983;SDS011;15317;50.360;8.726;2023-04-24T00:48:57;2.10;;;1.77;;
27983;SDS011;15317;50.360;8.726;2023-04-24T00:54:02;3.33;;;1.70;;
27983;SDS011;15317;50.360;8.726;2023-04-24T00:59:05;5.03;;;2.10;;
27983;SDS011;15317;50.360;8.726;2023-04-24T01:04:10;2.40;;;2.00;;
27983;SDS011;15317;50.360;8.726;2023-04-24T01:09:15;2.07;;;1.70;;
27983;SDS011;15317;50.360;8.726;2023-04-24T01:14:20;2.17;;;1.70;;
27983;SDS011;15317;50.360;8.726;2023-04-24T01:19:24;3.07;;;1.87;;
27983;SDS011;15317;50.360;8.726;2023-04-24T01:24:29;2.87;;;1.90;;
27983;SDS011;15317;50.360;8.726;2023-04-24T01:29:33;3.07;;;1.80;;
27983;SDS011;15317;50.360;8.726;2023-04-24T01:34:37;2.77;;;2.00;;
27983;SDS011;15317;50.360;8.726;2023-04-24T01:39:44;4.80;;;1.97;;
27983;SDS011;15317;50.360;8.726;2023-04-24T01:44:48;2.47;;;1.90;;
27983;SDS011;15317;50.360;8.726;2023-04-24T01:49:52;2.57;;;1.80;;
27983;SDS011;15317;50.360;8.726;2023-04-24T01:54:56;2.10;;;1.80;;
27983;SDS011;15317;50.360;8.726;2023-04-24T02:00:02;2.83;;;1.80;;
27983;SDS011;15317;50.360;8.726;2023-04-24T02:05:07;2.90;;;1.80;;
27983;SDS011;15317;50.360;8.726;2023-04-24T02:10:12;2.80;;;1.70;;
27983;SDS011;15317;50.360;8.726;2023-04-24T02:15:16;3.77;;;1.97;;
27983;SDS011;15317;50.360;8.726;2023-04-24T02:20:19;4.43;;;2.30;;
27983;SDS011;15317;50.360;8.726;2023-04-24T02:25:24;2.73;;;1.97;;
27983;SDS011;15317;50.360;8.726;2023-04-24T02:30:27;2.97;;;2.20;;
27983;SDS011;15317;50.360;8.726;2023-04-24T02:35:31;5.87;;;2.97;;
27983;SDS011;15317;50.360;8.726;2023-04-24T02:40:35;3.90;;;3.60;;
27983;SDS011;15317;50.360;8.726;2023-04-24T02:45:38;4.60;;;4.13;;
27983;SDS011;15317;50.360;8.726;2023-04-24T02:50:42;4.83;;;4.43;;
27983;SDS011;15317;50.360;8.726;2023-04-24T02:55:47;5.67;;;5.17;;
27983;SDS011;15317;50.360;8.726;2023-04-24T03:00:52;6.07;;;5.57;;
27983;SDS011;15317;50.360;8.726;2023-04-24T03:05:56;6.13;;;5.73;;
27983;SDS011;15317;50.360;8.726;2023-04-24T03:11:01;6.70;;;6.20;;
27983;SDS011;15317;50.360;8.726;2023-04-24T03:16:04;6.40;;;5.80;;
27983;SDS011;15317;50.360;8.726;2023-04-24T03:21:08;6.73;;;6.13;;
27983;SDS011;15317;50.360;8.726;2023-04-24T03:26:12;6.87;;;6.37;;
27983;SDS011;15317;50.360;8.726;2023-04-24T03:31:15;6.47;;;5.97;;
27983;SDS011;15317;50.360;8.726;2023-04-24T03:36:19;3.87;;;3.50;;
27983;SDS011;15317;50.360;8.726;2023-04-24T03:41:23;2.97;;;2.40;;
27983;SDS011;15317;50.360;8.726;2023-04-24T03:46:26;3.80;;;2.13;;
27983;SDS011;15317;50.360;8.726;2023-04-24T03:51:29;2.83;;;2.07;;
27983;SDS011;15317;50.360;8.726;2023-04-24T03:56:34;1.90;;;1.80;;
27983;SDS011;15317;50.360;8.726;2023-04-24T04:01:37;2.30;;;1.83;;
27983;SDS011;15317;50.360;8.726;2023-04-24T04:06:44;2.00;;;1.87;;
27983;SDS011;15317;50.360;8.726;2023-04-24T04:11:49;4.40;;;1.97;;
27983;SDS011;15317;50.360;8.726;2023-04-24T04:16:52;3.23;;;2.10;;
27983;SDS011;15317;50.360;8.726;2023-04-24T04:21:55;3.40;;;1.90;;
27983;SDS011;15317;50.360;8.726;2023-04-24T04:27:00;2.07;;;1.87;;
27983;SDS011;15317;50.360;8.726;2023-04-24T04:32:03;2.43;;;1.90;;
27983;SDS011;15317;50.360;8.726;2023-04-24T04:37:06;2.20;;;1.87;;
27983;SDS011;15317;50.360;8.726;2023-04-24T04:42:11;2.90;;;2.10;;
27983;SDS011;15317;50.360;8.726;2023-04-24T04:47:15;3.53;;;2.10;;
27983;SDS011;15317;50.360;8.726;2023-04-24T04:52:19;2.40;;;2.20;;
27983;SDS011;15317;50.360;8.726;2023-04-24T04:57:23;3.77;;;2.47;;
27983;SDS011;15317;50.360;8.726;2023-04-24T05:02:27;2.60;;;1.93;;
27983;SDS011;15317;50.360;8.726;2023-04-24T05:07:30;2.50;;;2.30;;
27983;SDS011;15317;50.360;8.726;2023-04-24T05:12:34;2.57;;;2.37;;
27983;SDS011;15317;50.360;8.726;2023-04-24T05:17:37;2.43;;;2.10;;
27983;SDS011;15317;50.360;8.726;2023-04-24T05:22:42;2.83;;;2.23;;
27983;SDS011;15317;50.360;8.726;2023-04-24T05:27:46;2.27;;;2.17;;
27983;SDS011;15317;50.360;8.726;2023-04-24T05:32:49;2.77;;;2.20;;
27983;SDS011;15317;50.360;8.726;2023-04-24T05:37:53;3.07;;;2.07;;
27983;SDS011;15317;50.360;8.726;2023-04-24T05:42:58;2.43;;;2.10;;
27983;SDS011;15317;50.360;8.726;2023-04-24T05:48:01;2.53;;;2.33;;
27983;SDS011;15317;50.360;8.726;2023-04-24T05:53:05;3.40;;;2.20;;
27983;SDS011;15317;50.360;8.726;2023-04-24T05:58:10;2.63;;;1.83;;
27983;SDS011;15317;50.360;8.726;2023-04-24T06:03:13;2.93;;;2.63;;
27983;SDS011;15317;50.360;8.726;2023-04-24T06:08:16;2.60;;;2.40;;
27983;SDS011;15317;50.360;8.726;2023-04-24T06:13:21;3.50;;;2.30;;
27983;SDS011;15317;50.360;8.726;2023-04-24T06:18:24;3.93;;;2.30;;
27983;SDS011;15317;50.360;8.726;2023-04-24T06:23:27;3.33;;;3.13;;
27983;SDS011;15317;50.360;8.726;2023-04-24T06:28:32;2.80;;;2.60;;
27983;SDS011;15317;50.360;8.726;2023-04-24T06:33:35;2.93;;;2.73;;
27983;SDS011;15317;50.360;8.726;2023-04-24T06:38:38;3.00;;;2.80;;
27983;SDS011;15317;50.360;8.726;2023-04-24T06:43:43;3.27;;;2.97;;
27983;SDS011;15317;50.360;8.726;2023-04-24T06:48:46;3.10;;;2.70;;
27983;SDS011;15317;50.360;8.726;2023-04-24T06:53:50;4.00;;;3.60;;
27983;SDS011;15317;50.360;8.726;2023-04-24T06:58:56;3.90;;;3.60;;
27983;SDS011;15317;50.360;8.726;2023-04-24T07:03:59;5.20;;;4.80;;
27983;SDS011;15317;50.360;8.726;2023-04-24T07:09:02;5.20;;;4.80;;
27983;SDS011;15317;50.360;8.726;2023-04-24T07:14:07;4.63;;;4.30;;
27983;SDS011;15317;50.360;8.726;2023-04-24T07:19:10;3.87;;;3.53;;
27983;SDS011;15317;50.360;8.726;2023-04-24T07:24:13;4.00;;;3.70;;
27983;SDS011;15317;50.360;8.726;2023-04-24T07:29:18;3.63;;;3.40;;
27983;SDS011;15317;50.360;8.726;2023-04-24T07:34:22;3.43;;;3.20;;
27983;SDS011;15317;50.360;8.726;2023-04-24T07:39:25;4.37;;;3.30;;
27983;SDS011;15317;50.360;8.726;2023-04-24T07:44:31;2.73;;;2.53;;
27983;SDS011;15317;50.360;8.726;2023-04-24T07:49:34;3.47;;;2.70;;
27983;SDS011;15317;50.360;8.726;2023-04-24T07:54:37;3.40;;;2.60;;
27983;SDS011;15317;50.360;8.726;2023-04-24T07:59:41;2.83;;;2.63;;
27983;SDS011;15317;50.360;8.726;2023-04-24T08:04:44;2.77;;;2.20;;
27983;SDS011;15317;50.360;8.726;2023-04-24T08:09:48;2.90;;;2.70;;
27983;SDS011;15317;50.360;8.726;2023-04-24T08:14:52;2.70;;;2.50;;
27983;SDS011;15317;50.360;8.726;2023-04-24T08:19:55;2.97;;;2.67;;
27983;SDS011;15317;50.360;8.726;2023-04-24T08:25:03;2.80;;;2.60;;
27983;SDS011;15317;50.360;8.726;2023-04-24T08:30:09;2.67;;;2.40;;
27983;SDS011;15317;50.360;8.726;2023-04-24T08:35:12;2.50;;;2.40;;
27983;SDS011;15317;50.360;8.726;2023-04-24T08:40:16;2.80;;;2.60;;
27983;SDS011;15317;50.360;8.726;2023-04-24T08:45:20;2.60;;;2.40;;
27983;SDS011;15317;50.360;8.726;2023-04-24T08:50:24;2.80;;;2.50;;
27983;SDS011;15317;50.360;8.726;2023-04-24T08:55:27;2.60;;;2.40;;
27983;SDS011;15317;50.360;8.726;2023-04-24T09:00:34;2.50;;;2.30;;
27983;SDS011;15317;50.360;8.726;2023-04-24T09:05:38;1.90;;;1.80;;
27983;SDS011;15317;50.360;8.726;2023-04-24T09:10:42;2.30;;;2.17;;
27983;SDS011;15317;50.360;8.726;2023-04-24T09:15:47;1.90;;;1.80;;
27983;SDS011;15317;50.360;8.726;2023-04-24T09:21:00;2.60;;;1.87;;
27983;SDS011;15317;50.360;8.726;2023-04-24T09:26:04;1.80;;;1.70;;
27983;SDS011;15317;50.360;8.726;2023-04-24T09:31:11;1.80;;;1.70;;
27983;SDS011;15317;50.360;8.726;2023-04-24T09:36:15;2.00;;;1.90;;
27983;SDS011;15317;50.360;8.726;2023-04-24T09:41:20;1.90;;;1.70;;
27983;SDS011;15317;50.360;8.726;2023-04-24T09:46:30;1.60;;;1.50;;
27983;SDS011;15317;50.360;8.726;2023-04-24T09:51:35;1.40;;;1.30;;
27983;SDS011;15317;50.360;8.726;2023-04-24T09:56:41;1.73;;;1.63;;
27983;SDS011;15317;50.360;8.726;2023-04-24T10:01:48;1.67;;;1.50;;
27983;SDS011;15317;50.360;8.726;2023-04-24T10:06:53;2.83;;;1.47;;
27983;SDS011;15317;50.360;8.726;2023-04-24T10:11:57;1.27;;;1.20;;
27983;SDS011;15317;50.360;8.726;2023-04-24T10:17:05;1.00;;;1.00;;
27983;SDS011;15317;50.360;8.726;2023-04-24T10:22:09;1.20;;;1.10;;
27983;SDS011;15317;50.360;8.726;2023-04-24T10:27:13;1.50;;;0.90;;
27983;SDS011;15317;50.360;8.726;2023-04-24T10:32:18;1.03;;;1.00;;
27983;SDS011;15317;50.360;8.726;2023-04-24T10:37:21;1.10;;;0.93;;
27983;SDS011;15317;50.360;8.726;2023-04-24T10:42:26;0.93;;;0.93;;
27983;SDS011;15317;50.360;8.726;2023-04-24T10:47:31;0.93;;;0.80;;
27983;SDS011;15317;50.360;8.726;2023-04-24T10:52:45;1.10;;;1.00;;
27983;SDS011;15317;50.360;8.726;2023-04-24T10:58:00;2.40;;;1.10;;
27983;SDS011;15317;50.360;8.726;2023-04-24T11:03:06;1.07;;;0.90;;
27983;SDS011;15317;50.360;8.726;2023-04-24T11:08:26;1.10;;;1.00;;
27983;SDS011;15317;50.360;8.726;2023-04-24T11:19:09;1.00;;;1.00;;
27983;SDS011;15317;50.360;8.726;2023-04-24T11:24:30;1.00;;;1.00;;
27983;SDS011;15317;50.360;8.726;2023-04-24T11:29:38;0.90;;;0.87;;
27983;SDS011;15317;50.360;8.726;2023-04-24T11:34:48;0.90;;;0.90;;
27983;SDS011;15317;50.360;8.726;2023-04-24T11:39:53;1.20;;;1.10;;
27983;SDS011;15317;50.360;8.726;2023-04-24T11:44:58;1.40;;;1.10;;
27983;SDS011;15317;50.360;8.726;2023-04-24T11:50:07;1.33;;;1.20;;
27983;SDS011;15317;50.360;8.726;2023-04-24T11:55:22;1.20;;;1.17;;
27983;SDS011;15317;50.360;8.726;2023-04-24T12:00:28;1.53;;;1.43;;
27983;SDS011;15317;50.360;8.726;2023-04-24T12:05:35;2.00;;;1.10;;
27983;SDS011;15317;50.360;8.726;2023-04-24T12:10:38;1.60;;;1.50;;
27983;SDS011;15317;50.360;8.726;2023-04-24T12:15:42;1.60;;;1.50;;
27983;SDS011;15317;50.360;8.726;2023-04-24T12:20:46;2.20;;;2.07;;
27983;SDS011;15317;50.360;8.726;2023-04-24T12:25:50;2.23;;;2.03;;
27983;SDS011;15317;50.360;8.726;2023-04-24T12:30:53;2.37;;;2.27;;
27983;SDS011;15317;50.360;8.726;2023-04-24T12:35:58;2.73;;;2.40;;
27983;SDS011;15317;50.360;8.726;2023-04-24T12:41:02;1.20;;;1.10;;
27983;SDS011;15317;50.360;8.726;2023-04-24T12:46:07;0.60;;;0.60;;
27983;SDS011;15317;50.360;8.726;2023-04-24T12:51:11;0.50;;;0.50;;
27983;SDS011;15317;50.360;8.726;2023-04-24T12:56:15;0.70;;;0.70;;
27983;SDS011;15317;50.360;8.726;2023-04-24T13:01:19;2.03;;;0.80;;
27983;SDS011;15317;50.360;8.726;2023-04-24T13:06:24;1.27;;;0.70;;
27983;SDS011;15317;50.360;8.726;2023-04-24T13:11:28;1.13;;;0.77;;
27983;SDS011;15317;50.360;8.726;2023-04-24T13:16:31;0.70;;;0.70;;
27983;SDS011;15317;50.360;8.726;2023-04-24T13:21:35;1.00;;;1.00;;
27983;SDS011;15317;50.360;8.726;2023-04-24T13:26:39;1.30;;;1.20;;
27983;SDS011;15317;50.360;8.726;2023-04-24T13:31:42;3.37;;;2.10;;
27983;SDS011;15317;50.360;8.726;2023-04-24T13:36:48;3.40;;;2.53;;
27983;SDS011;15317;50.360;8.726;2023-04-24T13:41:54;3.60;;;3.30;;
27983;SDS011;15317;50.360;8.726;2023-04-24T13:46:58;3.70;;;3.30;;
27983;SDS011;15317;50.360;8.726;2023-04-24T13:52:02;3.63;;;3.27;;
27983;SDS011;15317;50.360;8.726;2023-04-24T13:57:06;3.70;;;3.40;;
27983;SDS011;15317;50.360;8.726;2023-04-24T14:02:09;4.10;;;3.80;;
27983;SDS011;15317;50.360;8.726;2023-04-24T14:07:14;5.83;;;4.50;;
27983;SDS011;15317;50.360;8.726;2023-04-24T14:12:17;4.80;;;4.40;;
27983;SDS011;15317;50.360;8.726;2023-04-24T14:17:21;4.43;;;4.07;;
27983;SDS011;15317;50.360;8.726;2023-04-24T14:22:26;4.23;;;3.83;;
27983;SDS011;15317;50.360;8.726;2023-04-24T14:27:29;4.30;;;3.90;;
27983;SDS011;15317;50.360;8.726;2023-04-24T14:32:32;3.87;;;3.57;;
27983;SDS011;15317;50.360;8.726;2023-04-24T14:37:36;4.33;;;3.83;;
27983;SDS011;15317;50.360;8.726;2023-04-24T14:42:42;5.40;;;3.67;;
27983;SDS011;15317;50.360;8.726;2023-04-24T14:47:45;5.83;;;4.60;;
27983;SDS011;15317;50.360;8.726;2023-04-24T14:52:50;4.77;;;4.00;;
27983;SDS011;15317;50.360;8.726;2023-04-24T14:57:53;5.63;;;4.43;;
27983;SDS011;15317;50.360;8.726;2023-04-24T15:02:56;4.83;;;4.40;;
27983;SDS011;15317;50.360;8.726;2023-04-24T15:08:00;5.57;;;4.80;;
27983;SDS011;15317;50.360;8.726;2023-04-24T15:13:04;6.10;;;4.90;;
27983;SDS011;15317;50.360;8.726;2023-04-24T15:18:07;5.43;;;4.20;;
27983;SDS011;15317;50.360;8.726;2023-04-24T15:23:14;5.03;;;4.37;;
27983;SDS011;15317;50.360;8.726;2023-04-24T15:28:17;6.47;;;4.60;;
27983;SDS011;15317;50.360;8.726;2023-04-24T15:33:20;5.23;;;4.67;;
27983;SDS011;15317;50.360;8.726;2023-04-24T15:38:25;4.80;;;4.30;;
27983;SDS011;15317;50.360;8.726;2023-04-24T15:43:28;4.97;;;4.50;;
27983;SDS011;15317;50.360;8.726;2023-04-24T15:48:33;4.97;;;4.50;;
27983;SDS011;15317;50.360;8.726;2023-04-24T15:53:37;6.17;;;4.47;;
27983;SDS011;15317;50.360;8.726;2023-04-24T15:58:40;5.13;;;4.73;;
27983;SDS011;15317;50.360;8.726;2023-04-24T16:03:43;5.03;;;4.53;;
27983;SDS011;15317;50.360;8.726;2023-04-24T16:08:48;4.87;;;4.40;;
27983;SDS011;15317;50.360;8.726;2023-04-24T16:13:51;4.90;;;4.47;;
27983;SDS011;15317;50.360;8.726;2023-04-24T16:18:54;5.47;;;4.93;;
27983;SDS011;15317;50.360;8.726;2023-04-24T16:23:59;5.10;;;4.67;;
27983;SDS011;15317;50.360;8.726;2023-04-24T16:29:02;5.07;;;4.37;;
27983;SDS011;15317;50.360;8.726;2023-04-24T16:34:05;5.97;;;4.93;;
27983;SDS011;15317;50.360;8.726;2023-04-24T16:39:15;5.80;;;5.20;;
27983;SDS011;15317;50.360;8.726;2023-04-24T16:44:18;4.90;;;4.50;;
27983;SDS011;15317;50.360;8.726;2023-04-24T16:49:22;5.57;;;4.93;;
27983;SDS011;15317;50.360;8.726;2023-04-24T16:54:26;6.57;;;4.90;;
27983;SDS011;15317;50.360;8.726;2023-04-24T16:59:31;6.03;;;5.23;;
27983;SDS011;15317;50.360;8.726;2023-04-24T17:04:34;6.37;;;5.73;;
27983;SDS011;15317;50.360;8.726;2023-04-24T17:09:39;5.57;;;5.07;;
27983;SDS011;15317;50.360;8.726;2023-04-24T17:14:43;5.23;;;4.83;;
27983;SDS011;15317;50.360;8.726;2023-04-24T17:19:46;6.00;;;5.50;;
27983;SDS011;15317;50.360;8.726;2023-04-24T17:24:50;4.73;;;4.33;;
27983;SDS011;15317;50.360;8.726;2023-04-24T17:29:53;5.03;;;4.63;;
27983;SDS011;15317;50.360;8.726;2023-04-24T17:34:57;4.83;;;4.43;;
27983;SDS011;15317;50.360;8.726;2023-04-24T17:40:01;4.97;;;4.57;;
27983;SDS011;15317;50.360;8.726;2023-04-24T17:45:06;4.30;;;4.00;;
27983;SDS011;15317;50.360;8.726;2023-04-24T17:50:10;3.93;;;3.60;;
27983;SDS011;15317;50.360;8.726;2023-04-24T17:55:15;4.40;;;4.00;;
27983;SDS011;15317;50.360;8.726;2023-04-24T18:00:18;4.77;;;4.37;;
27983;SDS011;15317;50.360;8.726;2023-04-24T18:05:22;4.97;;;4.57;;
27983;SDS011;15317;50.360;8.726;2023-04-24T18:10:26;4.53;;;4.10;;
27983;SDS011;15317;50.360;8.726;2023-04-24T18:15:32;4.80;;;4.40;;
27983;SDS011;15317;50.360;8.726;2023-04-24T18:20:36;4.60;;;4.20;;
27983;SDS011;15317;50.360;8.726;2023-04-24T18:25:40;4.93;;;4.53;;
27983;SDS011;15317;50.360;8.726;2023-04-24T18:30:44;7.87;;;7.17;;
27983;SDS011;15317;50.360;8.726;2023-04-24T18:35:47;6.30;;;5.77;;
27983;SDS011;15317;50.360;8.726;2023-04-24T18:40:51;7.83;;;7.23;;
27983;SDS011;15317;50.360;8.726;2023-04-24T18:45:54;6.87;;;6.37;;
27983;SDS011;15317;50.360;8.726;2023-04-24T18:50:57;6.97;;;6.37;;
27983;SDS011;15317;50.360;8.726;2023-04-24T18:56:03;5.93;;;5.43;;
27983;SDS011;15317;50.360;8.726;2023-04-24T19:01:06;6.43;;;5.83;;
27983;SDS011;15317;50.360;8.726;2023-04-24T19:06:09;6.20;;;5.60;;
27983;SDS011;15317;50.360;8.726;2023-04-24T19:11:13;6.73;;;6.13;;
27983;SDS011;15317;50.360;8.726;2023-04-24T19:16:16;6.53;;;5.93;;
27983;SDS011;15317;50.360;8.726;2023-04-24T19:21:19;7.50;;;6.90;;
27983;SDS011;15317;50.360;8.726;2023-04-24T19:26:24;8.60;;;7.80;;
27983;SDS011;15317;50.360;8.726;2023-04-24T19:31:29;9.60;;;8.73;;
27983;SDS011;15317;50.360;8.726;2023-04-24T19:36:32;9.90;;;8.90;;
27983;SDS011;15317;50.360;8.726;2023-04-24T19:41:38;9.70;;;8.90;;
27983;SDS011;15317;50.360;8.726;2023-04-24T19:46:41;12.80;;;11.70;;
27983;SDS011;15317;50.360;8.726;2023-04-24T19:51:45;9.73;;;8.73;;
27983;SDS011;15317;50.360;8.726;2023-04-24T19:56:50;8.50;;;7.90;;
27983;SDS011;15317;50.360;8.726;2023-04-24T20:01:53;8.00;;;7.40;;
27983;SDS011;15317;50.360;8.726;2023-04-24T20:06:56;7.60;;;7.00;;
27983;SDS011;15317;50.360;8.726;2023-04-24T20:12:01;7.80;;;7.10;;
27983;SDS011;15317;50.360;8.726;2023-04-24T20:17:04;6.70;;;6.20;;
27983;SDS011;15317;50.360;8.726;2023-04-24T20:22:07;7.33;;;6.73;;
27983;SDS011;15317;50.360;8.726;2023-04-24T20:27:15;7.37;;;6.67;;
27983;SDS011;15317;50.360;8.726;2023-04-24T20:32:18;7.20;;;6.60;;
27983;SDS011;15317;50.360;8.726;2023-04-24T20:37:22;8.43;;;7.73;;
27983;SDS011;15317;50.360;8.726;2023-04-24T20:42:26;8.40;;;7.70;;
27983;SDS011;15317;50.360;8.726;2023-04-24T20:47:31;8.70;;;7.30;;
27983;SDS011;15317;50.360;8.726;2023-04-24T20:52:34;8.27;;;7.67;;
27983;SDS011;15317;50.360;8.726;2023-04-24T20:57:38;8.60;;;7.80;;
27983;SDS011;15317;50.360;8.726;2023-04-24T21:02:41;8.53;;;7.83;;
27983;SDS011;15317;50.360;8.726;2023-04-24T21:07:44;8.60;;;7.73;;
27983;SDS011;15317;50.360;8.726;2023-04-24T21:12:49;8.70;;;7.90;;
27983;SDS011;15317;50.360;8.726;2023-04-24T21:17:52;8.10;;;7.40;;
27983;SDS011;15317;50.360;8.726;2023-04-24T21:22:55;8.10;;;7.50;;
27983;SDS011;15317;50.360;8.726;2023-04-24T21:28:00;7.00;;;6.30;;
27983;SDS011;15317;50.360;8.726;2023-04-24T21:33:03;9.07;;;8.37;;
27983;SDS011;15317;50.360;8.726;2023-04-24T21:38:07;9.37;;;8.57;;
27983;SDS011;15317;50.360;8.726;2023-04-24T21:43:11;8.70;;;7.87;;
27983;SDS011;15317;50.360;8.726;2023-04-24T21:48:14;8.93;;;8.10;;
27983;SDS011;15317;50.360;8.726;2023-04-24T21:53:17;7.70;;;7.10;;
27983;SDS011;15317;50.360;8.726;2023-04-24T21:58:22;7.80;;;7.10;;
27983;SDS011;15317;50.360;8.726;2023-04-24T22:03:25;8.13;;;7.37;;
27983;SDS011;15317;50.360;8.726;2023-04-24T22:08:28;8.13;;;7.43;;
27983;SDS011;15317;50.360;8.726;2023-04-24T22:13:33;8.97;;;7.13;;
27983;SDS011;15317;50.360;8.726;2023-04-24T22:18:36;8.53;;;7.70;;
27983;SDS011;15317;50.360;8.726;2023-04-24T22:23:48;9.10;;;8.30;;
27983;SDS011;15317;50.360;8.726;2023-04-24T22:28:53;9.60;;;8.80;;
27983;SDS011;15317;50.360;8.726;2023-04-24T22:33:56;9.23;;;8.43;;
27983;SDS011;15317;50.360;8.726;2023-04-24T22:38:59;10.20;;;9.30;;
27983;SDS011;15317;50.360;8.726;2023-04-24T22:44:04;9.67;;;8.93;;
27983;SDS011;15317;50.360;8.726;2023-04-24T22:49:07;10.43;;;9.53;;
27983;SDS011;15317;50.360;8.726;2023-04-24T22:54:10;9.50;;;8.77;;
27983;SDS011;15317;50.360;8.726;2023-04-24T22:59:15;10.37;;;9.47;;
27983;SDS011;15317;50.360;8.726;2023-04-24T23:04:19;9.97;;;9.17;;
27983;SDS011;15317;50.360;8.726;2023-04-24T23:09:22;9.43;;;8.67;;
27983;SDS011;15317;50.360;8.726;2023-04-24T23:14:27;10.90;;;10.00;;
27983;SDS011;15317;50.360;8.726;2023-04-24T23:19:31;10.73;;;9.93;;
27983;SDS011;15317;50.360;8.726;2023-04-24T23:24:34;10.63;;;9.63;;
27983;SDS011;15317;50.360;8.726;2023-04-24T23:29:38;11.40;;;10.50;;
27983;SDS011;15317;50.360;8.726;2023-04-24T23:34:42;13.97;;;12.67;;
27983;SDS011;15317;50.360;8.726;2023-04-24T23:39:45;13.13;;;12.03;;
27983;SDS011;15317;50.360;8.726;2023-04-24T23:44:50;15.40;;;13.77;;
27983;SDS011;15317;50.360;8.726;2023-04-24T23:49:53;15.20;;;13.80;;
27983;SDS011;15317;50.360;8.726;2023-04-24T23:54:56;14.53;;;13.20;;
